createdAt,value
2019-05-02T00:02:48.034Z,7.27
2019-05-02T00:05:54.329Z,7.25
2019-05-02T00:08:59.542Z,7.26
2019-05-02T00:12:07.278Z,7.26
2019-05-02T00:15:13.357Z,7.25
2019-05-02T00:18:18.699Z,7.22
2019-05-02T00:21:24.067Z,7.15
2019-05-02T00:24:29.169Z,7.15
2019-05-02T00:27:37.703Z,7.14
2019-05-02T00:30:41.362Z,7.19
2019-05-02T00:33:46.669Z,7.13
2019-05-02T00:36:51.933Z,7.05
2019-05-02T00:39:57.301Z,7.01
2019-05-02T00:43:04.777Z,7.05
2019-05-02T00:46:09.889Z,7.08
2019-05-02T00:49:15.035Z,7.02
2019-05-02T00:52:20.239Z,6.96
2019-05-02T00:55:28.874Z,6.91
2019-05-02T00:58:33.108Z,6.97
2019-05-02T01:02:05.311Z,6.85
2019-05-02T01:05:10.102Z,6.81
2019-05-02T01:08:15.277Z,6.79
2019-05-02T01:11:20.458Z,6.72
2019-05-02T01:14:27.091Z,6.76
2019-05-02T01:17:32.484Z,6.81
2019-05-02T01:20:37.715Z,6.91
2019-05-02T01:23:42.829Z,7.04
2019-05-02T01:27:04.558Z,7.07
2019-05-02T01:30:42.366Z,7.08
2019-05-02T01:34:04.485Z,7.12
2019-05-02T01:37:20.650Z,7.15
2019-05-02T01:40:22.251Z,7.17
2019-05-02T01:43:30.157Z,7.24
2019-05-02T01:46:35.324Z,7.30
2019-05-02T01:49:40.484Z,7.28
2019-05-02T01:52:45.689Z,7.26
2019-05-02T01:55:51.964Z,7.27
2019-05-02T01:58:58.866Z,7.23
2019-05-02T02:02:04.147Z,7.29
2019-05-02T02:05:09.514Z,7.17
2019-05-02T02:08:14.744Z,7.22
2019-05-02T02:11:19.939Z,7.16
2019-05-02T02:14:25.058Z,7.14
2019-05-02T02:17:30.294Z,7.09
2019-05-02T02:21:00.258Z,7.04
2019-05-02T02:24:09.962Z,7.03
2019-05-02T02:27:15.130Z,7.04
2019-05-02T02:30:24.285Z,7.02
2019-05-02T02:33:27.216Z,7.02
2019-05-02T02:36:34.883Z,7.02
2019-05-02T02:39:39.265Z,7.02
2019-05-02T02:42:44.768Z,7.02
2019-05-02T02:45:59.998Z,6.96
2019-05-02T02:49:05.508Z,6.98
2019-05-02T02:52:10.718Z,7.00
2019-05-02T02:55:21.310Z,6.98
2019-05-02T02:58:22.769Z,6.97
2019-05-02T03:01:29.713Z,6.95
2019-05-02T03:04:34.737Z,6.99
2019-05-02T03:07:39.849Z,7.02
2019-05-02T03:10:46.560Z,7.00
2019-05-02T03:14:12.994Z,6.99
2019-05-02T03:17:20.299Z,7.00
2019-05-02T03:20:25.138Z,6.95
2019-05-02T03:23:30.493Z,6.95
2019-05-02T03:26:35.636Z,6.87
2019-05-02T03:29:44.442Z,6.93
2019-05-02T03:33:03.418Z,6.84
2019-05-02T03:35:55.063Z,6.90
2019-05-02T03:39:00.315Z,6.97
2019-05-02T03:42:06.196Z,6.91
2019-05-02T03:45:11.418Z,6.94
2019-05-02T03:48:18.176Z,6.97
2019-05-02T03:51:25.215Z,6.99
2019-05-02T03:54:30.920Z,6.96
2019-05-02T03:57:36.344Z,6.97
2019-05-02T04:00:41.668Z,6.97
2019-05-02T04:03:47.468Z,7.07
2019-05-02T04:06:54.958Z,7.00
2019-05-02T04:10:00.552Z,7.00
2019-05-02T04:13:05.762Z,7.02
2019-05-02T04:16:15.365Z,7.13
2019-05-02T04:19:18.603Z,7.12
2019-05-02T04:22:26.483Z,7.08
2019-05-02T04:25:34.004Z,7.07
2019-05-02T04:28:39.103Z,7.19
2019-05-02T04:31:44.388Z,7.27
2019-05-02T04:34:55.781Z,7.25
2019-05-02T04:37:59.196Z,7.19
2019-05-02T04:41:03.739Z,7.14
2019-05-02T04:44:09.295Z,7.27
2019-05-02T04:47:20.638Z,7.34
2019-05-02T04:50:29.246Z,7.31
2019-05-02T04:53:41.019Z,7.32
2019-05-02T04:56:52.327Z,7.32
2019-05-02T04:59:50.388Z,7.32
2019-05-02T05:02:54.820Z,7.53
2019-05-02T05:06:07.130Z,7.43
2019-05-02T05:09:10.431Z,7.54
2019-05-02T05:12:14.806Z,7.50
2019-05-02T05:15:35.830Z,7.59
2019-05-02T05:18:27.488Z,7.59
2019-05-02T05:21:33.803Z,7.77
2019-05-02T05:24:58.283Z,7.81
2019-05-02T05:28:06.057Z,7.85
2019-05-02T05:31:10.346Z,7.94
2019-05-02T05:34:17.346Z,8.01
2019-05-02T05:37:22.531Z,7.89
2019-05-02T05:40:31.882Z,8.05
2019-05-02T05:43:34.606Z,7.92
2019-05-02T05:46:42.472Z,7.98
2019-05-02T05:49:47.769Z,8.13
2019-05-02T05:52:53.068Z,8.21
2019-05-02T05:56:02.378Z,8.16
2019-05-02T05:59:07.618Z,8.15
2019-05-02T06:02:14.612Z,8.27
2019-05-02T06:05:19.128Z,8.22
2019-05-02T06:08:24.327Z,8.49
2019-05-02T06:11:29.581Z,8.63
2019-05-02T06:14:34.858Z,8.38
2019-05-02T06:17:40.125Z,8.47
2019-05-02T06:20:45.306Z,8.55
2019-05-02T06:23:50.637Z,8.57
2019-05-02T06:26:55.891Z,8.74
2019-05-02T06:30:01.021Z,8.79
2019-05-02T06:33:06.353Z,8.91
2019-05-02T06:36:11.500Z,8.81
2019-05-02T06:39:16.722Z,8.86
2019-05-02T06:42:21.852Z,8.92
2019-05-02T06:45:27.562Z,8.95
2019-05-02T06:48:32.682Z,9.11
2019-05-02T06:51:37.831Z,9.23
2019-05-02T06:54:42.985Z,9.21
2019-05-02T06:57:48.207Z,8.95
2019-05-02T07:00:58.249Z,9.25
2019-05-02T07:04:03.832Z,9.39
2019-05-02T07:07:07.646Z,9.21
2019-05-02T07:10:13.073Z,9.24
2019-05-02T07:13:18.333Z,9.46
2019-05-02T07:16:38.537Z,9.42
2019-05-02T07:19:46.344Z,9.60
2019-05-02T07:22:51.528Z,9.84
2019-05-02T07:25:56.659Z,9.74
2019-05-02T07:29:01.771Z,9.82
2019-05-02T07:32:07.138Z,10.12
2019-05-02T07:35:12.337Z,9.81
2019-05-02T07:38:20.139Z,10.00
2019-05-02T07:41:29.040Z,9.66
2019-05-02T07:44:32.554Z,9.83
2019-05-02T07:47:40.303Z,9.92
2019-05-02T07:50:46.488Z,10.21
2019-05-02T07:53:55.179Z,10.33
2019-05-02T07:57:02.377Z,10.35
2019-05-02T08:00:08.931Z,10.40
2019-05-02T08:03:15.606Z,10.79
2019-05-02T08:06:34.365Z,10.87
2019-05-02T08:09:27.790Z,10.96
2019-05-02T08:12:33.046Z,10.89
2019-05-02T08:15:38.293Z,10.93
2019-05-02T08:18:43.445Z,11.13
2019-05-02T08:21:48.603Z,10.85
2019-05-02T08:24:54.270Z,10.93
2019-05-02T08:28:18.435Z,11.60
2019-05-02T08:31:24.918Z,11.59
2019-05-02T08:34:32.008Z,11.18
2019-05-02T08:37:41.103Z,11.26
2019-05-02T08:40:47.756Z,11.44
2019-05-02T08:43:53.430Z,12.00
2019-05-02T08:47:30.593Z,11.94
2019-05-02T08:50:44.989Z,11.88
2019-05-02T08:54:06.246Z,12.59
2019-05-02T08:57:11.252Z,12.16
2019-05-02T09:00:16.741Z,12.69
2019-05-02T09:03:21.855Z,12.48
2019-05-02T09:06:29.655Z,13.04
2019-05-02T09:09:34.991Z,12.93
2019-05-02T09:12:42.045Z,13.38
2019-05-02T09:15:51.341Z,13.48
2019-05-02T09:18:54.406Z,12.66
2019-05-02T09:21:59.739Z,12.32
2019-05-02T09:25:07.238Z,13.44
2019-05-02T09:28:12.610Z,13.82
2019-05-02T09:31:17.939Z,14.00
2019-05-02T09:34:26.722Z,13.82
2019-05-02T09:37:32.115Z,13.49
2019-05-02T09:40:37.456Z,14.10
2019-05-02T09:43:42.911Z,13.84
2019-05-02T09:46:55.226Z,14.47
2019-05-02T09:50:30.012Z,13.33
2019-05-02T09:53:28.410Z,12.90
2019-05-02T09:56:33.805Z,13.63
2019-05-02T09:59:43.363Z,13.76
2019-05-02T10:02:45.886Z,14.35
2019-05-02T10:05:52.347Z,13.55
2019-05-02T10:08:57.664Z,14.24
2019-05-02T10:12:02.866Z,13.95
2019-05-02T10:15:12.893Z,13.46
2019-05-02T10:18:19.612Z,13.60
2019-05-02T10:21:25.282Z,13.33
2019-05-02T10:24:32.256Z,13.59
2019-05-02T10:27:38.541Z,13.63
2019-05-02T10:30:47.263Z,14.27
2019-05-02T10:33:52.952Z,13.61
2019-05-02T10:37:00.960Z,13.82
2019-05-02T10:40:07.921Z,14.58
2019-05-02T10:43:13.678Z,14.86
2019-05-02T10:46:32.567Z,14.66
2019-05-02T10:49:49.755Z,14.47
2019-05-02T10:52:54.961Z,14.27
2019-05-02T10:56:02.705Z,14.10
2019-05-02T10:59:07.891Z,14.38
2019-05-02T11:02:32.765Z,14.75
2019-05-02T11:05:39.615Z,15.23
2019-05-02T11:08:46.151Z,15.70
2019-05-02T11:11:52.012Z,15.81
2019-05-02T11:15:16.353Z,16.18
2019-05-02T11:18:39.445Z,15.56
2019-05-02T11:21:32.285Z,15.28
2019-05-02T11:24:37.815Z,15.26
2019-05-02T11:27:43.038Z,15.71
2019-05-02T11:30:48.212Z,15.78
2019-05-02T11:33:54.770Z,15.81
2019-05-02T11:37:01.849Z,15.63
2019-05-02T11:40:08.634Z,15.73
2019-05-02T11:43:14.878Z,16.00
2019-05-02T11:46:22.121Z,15.63
2019-05-02T11:49:28.115Z,15.41
2019-05-02T11:52:37.382Z,14.84
2019-05-02T11:55:41.978Z,15.27
2019-05-02T11:58:48.377Z,15.53
2019-05-02T12:02:09.457Z,16.33
2019-05-02T12:05:13.984Z,16.60
2019-05-02T12:08:19.212Z,16.94
2019-05-02T12:11:25.820Z,17.17
2019-05-02T12:14:32.841Z,16.96
2019-05-02T12:17:39.633Z,17.19
2019-05-02T12:20:46.428Z,16.88
2019-05-02T12:23:53.278Z,16.89
2019-05-02T12:26:58.533Z,16.15
2019-05-02T12:30:03.902Z,16.24
2019-05-02T12:33:09.342Z,16.19
2019-05-02T12:36:14.483Z,16.52
2019-05-02T12:39:19.663Z,17.23
2019-05-02T12:42:25.245Z,16.35
2019-05-02T12:45:38.805Z,16.44
2019-05-02T12:48:46.238Z,16.49
2019-05-02T12:51:52.423Z,17.20
2019-05-02T12:55:02.108Z,17.06
2019-05-02T12:58:08.303Z,16.69
2019-05-02T13:01:13.629Z,16.73
2019-05-02T13:04:19.005Z,16.30
2019-05-02T13:07:24.262Z,16.64
2019-05-02T13:10:38.309Z,16.39
2019-05-02T13:13:43.799Z,16.26
2019-05-02T13:16:53.636Z,15.63
2019-05-02T13:20:00.762Z,15.55
2019-05-02T13:23:36.982Z,15.71
2019-05-02T13:26:42.884Z,15.38
2019-05-02T13:29:49.498Z,15.18
2019-05-02T13:32:58.144Z,15.09
2019-05-02T13:36:03.378Z,15.03
2019-05-02T13:39:14.795Z,15.01
2019-05-02T13:42:21.887Z,14.58
2019-05-02T13:45:47.765Z,14.45
2019-05-02T13:48:55.189Z,14.29
2019-05-02T13:52:02.348Z,14.25
2019-05-02T13:55:08.910Z,14.18
2019-05-02T13:58:14.157Z,13.78
2019-05-02T14:01:19.751Z,13.61
2019-05-02T14:04:25.219Z,13.40
2019-05-02T14:07:32.689Z,13.27
2019-05-02T14:10:41.057Z,13.05
2019-05-02T14:13:49.352Z,12.85
2019-05-02T14:16:56.605Z,12.73
2019-05-02T14:20:10.797Z,12.76
2019-05-02T14:23:09.021Z,12.48
2019-05-02T14:26:27.425Z,12.30
2019-05-02T14:29:22.069Z,12.17
2019-05-02T14:32:27.292Z,12.12
2019-05-02T14:35:36.793Z,11.98
2019-05-02T14:38:42.194Z,11.72
2019-05-02T14:41:47.502Z,11.55
2019-05-02T14:45:11.603Z,11.43
2019-05-02T14:48:17.756Z,11.34
2019-05-02T14:51:06.750Z,11.42
2019-05-02T14:54:12.222Z,11.25
2019-05-02T14:57:25.527Z,11.29
2019-05-02T15:00:31.589Z,11.12
2019-05-02T15:03:36.623Z,11.02
2019-05-02T15:06:43.565Z,10.98
2019-05-02T15:09:52.535Z,11.07
2019-05-02T15:13:03.385Z,11.01
2019-05-02T15:16:17.493Z,10.89
2019-05-02T15:19:18.614Z,11.08
2019-05-02T15:22:27.575Z,10.97
2019-05-02T15:25:37.427Z,11.01
2019-05-02T15:28:46.795Z,10.99
2019-05-02T15:32:21.926Z,10.98
2019-05-02T15:35:38.178Z,10.95
2019-05-02T15:38:47.373Z,10.87
2019-05-02T15:41:53.657Z,10.97
2019-05-02T15:45:05.689Z,10.93
2019-05-02T15:48:21.526Z,10.95
2019-05-02T15:51:23.423Z,10.96
2019-05-02T15:54:29.504Z,11.02
2019-05-02T15:57:43.766Z,11.02
2019-05-02T16:01:05.079Z,10.97
2019-05-02T16:04:12.715Z,11.03
2019-05-02T16:07:18.135Z,11.00
2019-05-02T16:10:25.552Z,11.05
2019-05-02T16:13:32.414Z,11.03
2019-05-02T16:16:41.781Z,10.96
2019-05-02T16:19:49.493Z,11.13
2019-05-02T16:22:54.749Z,11.08
2019-05-02T16:26:05.334Z,11.02
2019-05-02T16:29:07.066Z,10.99
2019-05-02T16:32:35.150Z,11.02
2019-05-02T16:35:38.967Z,11.18
2019-05-02T16:38:44.338Z,11.09
2019-05-02T16:41:50.639Z,11.10
2019-05-02T16:44:57.728Z,11.08
2019-05-02T16:48:03.431Z,11.04
2019-05-02T16:51:28.070Z,11.05
2019-05-02T16:54:15.887Z,11.02
2019-05-02T16:57:22.136Z,11.04
2019-05-02T17:00:28.057Z,10.99
2019-05-02T17:03:33.243Z,11.04
2019-05-02T17:06:39.804Z,10.94
2019-05-02T17:10:19.226Z,10.99
2019-05-02T17:13:27.469Z,10.96
2019-05-02T17:16:32.406Z,11.01
2019-05-02T17:19:37.718Z,10.88
2019-05-02T17:22:43.977Z,10.92
2019-05-02T17:25:49.876Z,10.92
2019-05-02T17:28:56.727Z,10.85
2019-05-02T17:32:02.256Z,10.88
2019-05-02T17:35:10.185Z,10.86
2019-05-02T17:38:19.091Z,10.98
2019-05-02T17:41:22.703Z,10.89
2019-05-02T17:44:27.885Z,10.82
2019-05-02T17:47:36.068Z,10.77
2019-05-02T17:51:01.937Z,10.78
2019-05-02T17:54:06.756Z,10.74
2019-05-02T17:57:14.077Z,10.70
2019-05-02T18:00:23.280Z,10.65
2019-05-02T18:03:31.008Z,10.65
2019-05-02T18:06:38.011Z,10.66
2019-05-02T18:09:45.242Z,10.64
2019-05-02T18:12:58.284Z,10.63
2019-05-02T18:16:07.845Z,10.51
2019-05-02T18:19:11.342Z,10.56
2019-05-02T18:22:24.133Z,10.49
2019-05-02T18:25:28.627Z,10.40
2019-05-02T18:28:45.824Z,10.42
2019-05-02T18:31:47.258Z,10.42
2019-05-02T18:34:51.997Z,10.49
2019-05-02T18:37:57.633Z,10.46
2019-05-02T18:41:06.205Z,10.48
2019-05-02T18:44:17.058Z,10.43
2019-05-02T18:47:33.346Z,10.41
2019-05-02T18:50:42.574Z,10.44
2019-05-02T18:53:47.344Z,10.35
2019-05-02T18:56:55.369Z,10.43
2019-05-02T19:00:04.207Z,10.36
2019-05-02T19:03:16.953Z,10.39
2019-05-02T19:06:22.027Z,10.37
2019-05-02T19:09:30.463Z,10.37
2019-05-02T19:12:37.609Z,10.35
2019-05-02T19:15:47.262Z,10.33
2019-05-02T19:18:54.293Z,10.28
2019-05-02T19:21:58.815Z,10.30
2019-05-02T19:25:05.196Z,10.36
2019-05-02T19:28:17.503Z,10.35
2019-05-02T19:31:31.940Z,10.38
2019-05-02T19:34:36.927Z,10.34
2019-05-02T19:37:46.080Z,10.39
2019-05-02T19:40:51.985Z,10.44
2019-05-02T19:43:57.823Z,10.44
2019-05-02T19:47:03.418Z,10.41
2019-05-02T19:50:43.892Z,10.43
2019-05-02T19:53:59.672Z,10.43
2019-05-02T19:57:02.548Z,10.44
2019-05-02T20:00:12.124Z,10.44
2019-05-02T20:03:21.742Z,10.39
2019-05-02T20:06:24.338Z,10.42
2019-05-02T20:09:31.838Z,10.45
2019-05-02T20:12:42.430Z,10.44
2019-05-02T20:15:49.868Z,10.27
2019-05-02T20:18:57.617Z,10.16
2019-05-02T20:22:12.876Z,10.13
2019-05-02T20:25:18.233Z,10.28
2019-05-02T20:28:23.525Z,10.11
2019-05-02T20:31:28.735Z,9.88
2019-05-02T20:34:33.980Z,9.90
2019-05-02T20:37:39.167Z,9.61
2019-05-02T20:40:44.406Z,9.55
2019-05-02T20:43:51.533Z,9.38
2019-05-02T20:46:56.523Z,9.23
2019-05-02T20:50:02.648Z,9.15
2019-05-02T20:53:28.756Z,9.05
2019-05-02T20:56:26.288Z,8.97
2019-05-02T20:59:32.258Z,8.87
2019-05-02T21:02:37.665Z,8.87
2019-05-02T21:05:52.074Z,8.77
2019-05-02T21:09:04.590Z,8.71
2019-05-02T21:12:14.347Z,8.61
2019-05-02T21:15:21.613Z,8.46
2019-05-02T21:18:26.672Z,8.34
2019-05-02T21:21:33.512Z,8.13
2019-05-02T21:24:42.077Z,8.04
2019-05-02T21:27:47.267Z,7.94
2019-05-02T21:30:52.560Z,7.87
2019-05-02T21:33:58.616Z,7.75
2019-05-02T21:37:03.827Z,7.64
2019-05-02T21:40:09.136Z,7.68
2019-05-02T21:43:14.277Z,7.76
2019-05-02T21:46:19.470Z,7.84
2019-05-02T21:49:49.335Z,7.87
2019-05-02T21:53:19.270Z,7.93
2019-05-02T21:56:32.294Z,7.98
2019-05-02T21:59:37.142Z,8.00
2019-05-02T22:02:42.503Z,8.02
2019-05-02T22:05:47.844Z,7.99
2019-05-02T22:08:52.930Z,8.00
2019-05-02T22:11:58.156Z,8.03
2019-05-02T22:15:03.366Z,8.03
2019-05-02T22:18:10.227Z,8.04
2019-05-02T22:21:15.321Z,8.05
2019-05-02T22:24:21.547Z,8.01
2019-05-02T22:27:26.734Z,8.05
2019-05-02T22:30:32.339Z,8.02
2019-05-02T22:33:37.567Z,8.03
2019-05-02T22:36:43.038Z,7.99
2019-05-02T22:39:55.914Z,7.97
2019-05-02T22:43:01.926Z,7.89
2019-05-02T22:46:09.650Z,7.91
2019-05-02T22:49:15.327Z,7.91
2019-05-02T22:52:21.796Z,7.85
2019-05-02T22:55:27.189Z,7.82
2019-05-02T22:58:32.733Z,7.78
2019-05-02T23:01:38.970Z,7.73
2019-05-02T23:04:44.196Z,7.75
2019-05-02T23:07:49.370Z,7.67
2019-05-02T23:10:55.319Z,7.63
2019-05-02T23:14:02.215Z,7.64
2019-05-02T23:17:08.104Z,7.62
2019-05-02T23:20:13.894Z,7.54
2019-05-02T23:23:19.444Z,7.52
2019-05-02T23:26:43.669Z,7.59
2019-05-02T23:29:49.310Z,7.59
2019-05-02T23:32:54.482Z,7.56
2019-05-02T23:35:59.645Z,7.56
2019-05-02T23:39:08.916Z,7.54
2019-05-02T23:42:14.075Z,7.46
2019-05-02T23:45:19.345Z,7.44
2019-05-02T23:48:24.559Z,7.42
2019-05-02T23:51:31.889Z,7.41
2019-05-02T23:54:48.882Z,7.41
2019-05-02T23:57:43.608Z,7.37
